createdAt,value
2022-12-08T00:00:24.893Z,72.26
2022-12-08T00:03:11.529Z,72.31
2022-12-08T00:06:04.982Z,72.24
2022-12-08T00:08:54.629Z,72.26
2022-12-08T00:11:26.114Z,72.37
2022-12-08T00:13:57.576Z,72.29
2022-12-08T00:16:29.067Z,72.31
2022-12-08T00:19:00.602Z,72.20
2022-12-08T00:21:32.413Z,72.26
2022-12-08T00:24:03.925Z,72.24
2022-12-08T00:26:35.412Z,72.08
2022-12-08T00:29:07.019Z,72.26
2022-12-08T00:31:38.836Z,72.16
2022-12-08T00:34:10.411Z,72.17
2022-12-08T00:36:42.041Z,72.17
2022-12-08T00:39:14.692Z,72.12
2022-12-08T00:42:04.391Z,72.00
2022-12-08T00:44:35.865Z,72.00
2022-12-08T00:47:07.895Z,72.20
2022-12-08T00:49:39.576Z,72.23
2022-12-08T00:52:12.613Z,72.14
2022-12-08T00:54:44.128Z,72.05
2022-12-08T00:57:15.667Z,72.31
2022-12-08T00:59:47.103Z,72.11
2022-12-08T01:02:18.596Z,71.98
2022-12-08T01:04:50.120Z,72.17
2022-12-08T01:07:21.668Z,72.17
2022-12-08T01:09:53.651Z,72.04
2022-12-08T01:12:25.231Z,72.01
2022-12-08T01:15:00.715Z,71.99
2022-12-08T01:17:33.926Z,72.09
2022-12-08T01:20:06.906Z,72.08
2022-12-08T01:22:38.588Z,72.14
2022-12-08T01:25:10.969Z,72.08
2022-12-08T01:27:42.427Z,71.97
2022-12-08T01:30:15.433Z,72.03
2022-12-08T01:32:47.350Z,71.93
2022-12-08T01:35:19.265Z,72.05
2022-12-08T01:37:52.273Z,71.90
2022-12-08T01:40:23.823Z,71.87
2022-12-08T01:42:55.300Z,72.03
2022-12-08T01:45:29.578Z,71.99
2022-12-08T01:48:05.899Z,71.98
2022-12-08T01:50:39.402Z,71.89
2022-12-08T01:53:14.710Z,72.05
2022-12-08T01:55:51.149Z,71.89
2022-12-08T01:58:27.997Z,72.00
2022-12-08T02:00:59.554Z,71.98
2022-12-08T02:03:36.505Z,72.03
2022-12-08T02:06:09.747Z,71.99
2022-12-08T02:08:43.071Z,72.05
2022-12-08T02:11:15.252Z,71.97
2022-12-08T02:13:48.585Z,72.11
2022-12-08T02:16:34.092Z,72.07
2022-12-08T02:19:31.852Z,71.92
2022-12-08T02:22:12.213Z,71.94
2022-12-08T02:24:53.691Z,72.01
2022-12-08T02:27:42.030Z,72.03
2022-12-08T02:30:22.004Z,71.88
2022-12-08T02:33:32.571Z,71.89
2022-12-08T02:36:09.436Z,71.97
2022-12-08T02:38:57.391Z,71.85
2022-12-08T02:41:39.535Z,71.89
2022-12-08T02:44:18.919Z,71.96
2022-12-08T02:46:54.563Z,71.99
2022-12-08T02:49:31.162Z,71.97
2022-12-08T02:52:30.284Z,71.94
2022-12-08T02:55:07.398Z,71.97
2022-12-08T02:57:50.358Z,71.88
2022-12-08T03:00:25.496Z,71.85
2022-12-08T03:03:10.487Z,71.84
2022-12-08T03:06:02.009Z,71.98
2022-12-08T03:08:43.157Z,71.88
2022-12-08T03:11:21.189Z,71.98
2022-12-08T03:13:55.800Z,71.86
2022-12-08T03:16:30.333Z,72.00
2022-12-08T03:19:07.621Z,71.98
2022-12-08T03:21:40.948Z,71.97
2022-12-08T03:24:14.117Z,71.98
2022-12-08T03:26:51.892Z,72.02
2022-12-08T03:29:23.952Z,72.04
2022-12-08T03:31:58.695Z,71.92
2022-12-08T03:34:31.434Z,71.85
2022-12-08T03:37:04.992Z,71.88
2022-12-08T03:39:34.936Z,71.95
2022-12-08T03:42:06.527Z,71.96
2022-12-08T03:44:38.024Z,71.97
2022-12-08T03:47:09.606Z,72.07
2022-12-08T03:49:41.164Z,72.27
2022-12-08T03:52:12.752Z,71.96
2022-12-08T03:54:44.364Z,71.90
2022-12-08T03:57:16.138Z,71.92
2022-12-08T03:59:47.670Z,71.76
2022-12-08T04:02:19.203Z,71.93
2022-12-08T04:04:50.815Z,72.05
2022-12-08T04:07:22.310Z,71.96
2022-12-08T04:09:53.817Z,72.01
2022-12-08T04:12:25.316Z,71.92
2022-12-08T04:14:56.802Z,71.85
2022-12-08T04:17:28.376Z,71.85
2022-12-08T04:20:00.042Z,71.79
2022-12-08T04:22:31.769Z,71.74
2022-12-08T04:25:03.549Z,71.83
2022-12-08T04:27:35.063Z,71.84
2022-12-08T04:30:08.061Z,71.83
2022-12-08T04:32:44.237Z,71.93
2022-12-08T04:35:18.834Z,71.89
2022-12-08T04:37:50.345Z,71.91
2022-12-08T04:40:21.985Z,72.00
2022-12-08T04:42:53.469Z,71.91
2022-12-08T04:45:25.072Z,71.86
2022-12-08T04:47:56.555Z,71.82
2022-12-08T04:50:28.625Z,71.83
2022-12-08T04:53:00.196Z,71.70
2022-12-08T04:55:31.733Z,71.71
2022-12-08T04:58:03.195Z,71.79
2022-12-08T05:00:34.720Z,71.79
2022-12-08T05:03:06.234Z,71.65
2022-12-08T05:05:37.796Z,71.70
2022-12-08T05:08:10.049Z,71.81
2022-12-08T05:10:41.938Z,71.72
2022-12-08T05:13:13.506Z,71.73
2022-12-08T05:15:45.090Z,71.76
2022-12-08T05:18:16.584Z,71.86
2022-12-08T05:20:48.113Z,71.82
2022-12-08T05:23:19.551Z,71.88
2022-12-08T05:25:51.052Z,71.95
2022-12-08T05:31:16.293Z,72.06
2022-12-08T05:33:50.024Z,71.99
2022-12-08T05:36:22.114Z,71.99
2022-12-08T05:38:53.627Z,71.87
2022-12-08T05:41:25.355Z,71.91
2022-12-08T05:43:56.829Z,71.94
2022-12-08T05:46:28.518Z,71.89
2022-12-08T05:49:01.876Z,71.83
2022-12-08T05:51:33.429Z,71.88
2022-12-08T05:54:04.949Z,71.87
2022-12-08T05:56:36.519Z,71.92
2022-12-08T05:59:09.641Z,72.05
2022-12-08T06:01:42.432Z,72.07
2022-12-08T06:04:14.015Z,72.07
2022-12-08T06:06:45.557Z,71.96
2022-12-08T06:09:17.065Z,71.97
2022-12-08T06:11:48.681Z,71.98
2022-12-08T06:14:20.421Z,72.01
2022-12-08T06:16:52.071Z,72.13
2022-12-08T06:19:23.635Z,72.24
2022-12-08T06:21:55.109Z,72.20
2022-12-08T06:24:26.883Z,72.27
2022-12-08T06:26:58.440Z,72.23
2022-12-08T06:29:29.917Z,72.19
2022-12-08T06:32:01.582Z,72.27
2022-12-08T06:34:33.225Z,72.07
2022-12-08T06:37:04.672Z,71.92
2022-12-08T06:39:36.204Z,71.94
2022-12-08T06:42:25.338Z,72.03
2022-12-08T06:44:57.097Z,72.11
2022-12-08T06:47:28.721Z,72.14
2022-12-08T06:50:00.250Z,72.08
2022-12-08T06:52:31.912Z,72.22
2022-12-08T06:55:03.419Z,72.26
2022-12-08T06:57:35.037Z,72.17
2022-12-08T07:00:08.395Z,72.20
2022-12-08T07:02:40.133Z,72.24
2022-12-08T07:05:11.760Z,72.26
2022-12-08T07:07:43.483Z,72.47
2022-12-08T07:10:15.073Z,72.33
2022-12-08T07:12:46.638Z,72.30
2022-12-08T07:15:18.648Z,72.31
2022-12-08T07:17:56.288Z,72.32
2022-12-08T07:20:30.927Z,72.36
2022-12-08T07:23:02.482Z,72.16
2022-12-08T07:25:34.101Z,71.86
2022-12-08T07:28:10.600Z,71.82
2022-12-08T07:30:42.307Z,71.63
2022-12-08T07:33:13.958Z,71.71
2022-12-08T07:35:49.283Z,71.68
2022-12-08T07:38:21.107Z,71.67
2022-12-08T07:40:53.219Z,71.73
2022-12-08T07:43:25.409Z,71.68
2022-12-08T07:45:57.022Z,71.86
2022-12-08T07:48:28.893Z,71.74
2022-12-08T07:51:05.086Z,71.65
2022-12-08T07:53:36.636Z,71.59
2022-12-08T07:56:11.150Z,71.46
2022-12-08T07:58:45.768Z,71.46
2022-12-08T08:01:28.414Z,71.38
2022-12-08T08:04:02.385Z,71.37
2022-12-08T08:06:34.956Z,71.29
2022-12-08T08:09:06.743Z,71.15
2022-12-08T08:11:38.496Z,70.99
2022-12-08T08:14:10.060Z,70.82
2022-12-08T08:16:46.621Z,70.71
2022-12-08T08:19:19.097Z,70.51
2022-12-08T08:21:50.609Z,70.58
2022-12-08T08:24:24.093Z,70.41
2022-12-08T08:26:55.644Z,70.74
2022-12-08T08:29:27.486Z,70.54
2022-12-08T08:31:59.172Z,70.54
2022-12-08T08:34:30.817Z,70.36
2022-12-08T08:37:02.491Z,70.13
2022-12-08T08:39:34.061Z,70.14
2022-12-08T08:42:05.684Z,70.26
2022-12-08T08:44:38.853Z,70.18
2022-12-08T08:47:10.443Z,70.11
2022-12-08T08:49:42.323Z,70.07
2022-12-08T08:52:13.890Z,70.00
2022-12-08T08:54:45.487Z,69.96
2022-12-08T08:57:23.642Z,69.78
2022-12-08T08:59:57.091Z,69.93
2022-12-08T09:02:28.640Z,69.76
2022-12-08T09:05:00.317Z,69.44
2022-12-08T09:07:32.241Z,69.48
2022-12-08T09:10:04.453Z,69.63
2022-12-08T09:12:36.147Z,69.58
2022-12-08T09:15:08.943Z,69.41
2022-12-08T09:17:40.502Z,68.84
2022-12-08T09:20:12.669Z,69.19
2022-12-08T09:22:44.260Z,69.34
2022-12-08T09:25:16.245Z,69.36
2022-12-08T09:27:47.835Z,69.02
2022-12-08T09:30:19.744Z,68.97
2022-12-08T09:32:51.254Z,69.12
2022-12-08T09:35:22.866Z,69.02
2022-12-08T09:37:54.404Z,68.92
2022-12-08T09:40:27.761Z,69.01
2022-12-08T09:43:08.145Z,68.84
2022-12-08T09:45:40.480Z,69.06
2022-12-08T09:48:17.363Z,69.15
2022-12-08T09:50:55.201Z,69.15
2022-12-08T09:53:35.260Z,68.97
2022-12-08T09:56:14.466Z,69.01
2022-12-08T09:58:53.489Z,68.78
2022-12-08T10:01:28.924Z,68.74
2022-12-08T10:04:01.391Z,68.41
2022-12-08T10:06:39.765Z,68.50
2022-12-08T10:09:27.882Z,68.32
2022-12-08T10:12:08.876Z,68.36
2022-12-08T10:14:45.437Z,68.08
2022-12-08T10:17:23.004Z,68.15
2022-12-08T10:20:00.580Z,67.88
2022-12-08T10:22:41.282Z,67.62
2022-12-08T10:25:19.753Z,67.85
2022-12-08T10:27:55.155Z,67.37
2022-12-08T10:30:26.882Z,66.86
2022-12-08T10:32:58.403Z,66.84
2022-12-08T10:35:46.260Z,67.14
2022-12-08T10:38:24.360Z,67.21
2022-12-08T10:41:02.073Z,67.14
2022-12-08T10:43:35.310Z,66.81
2022-12-08T10:46:16.076Z,66.86
2022-12-08T10:48:53.626Z,66.89
2022-12-08T10:51:41.188Z,66.75
2022-12-08T10:54:29.056Z,66.85
2022-12-08T10:57:01.026Z,66.93
2022-12-08T10:59:35.715Z,66.84
2022-12-08T11:02:20.380Z,66.58
2022-12-08T11:05:00.211Z,66.41
2022-12-08T11:07:31.969Z,66.49
2022-12-08T11:10:03.916Z,66.66
2022-12-08T11:12:36.664Z,66.63
2022-12-08T11:15:15.442Z,66.26
2022-12-08T11:17:57.388Z,66.46
2022-12-08T11:20:41.728Z,66.52
2022-12-08T11:23:25.232Z,66.38
2022-12-08T11:26:02.386Z,66.47
2022-12-08T11:28:33.995Z,66.32
2022-12-08T11:31:15.908Z,66.35
2022-12-08T11:33:48.392Z,66.32
2022-12-08T11:36:21.543Z,65.96
2022-12-08T11:38:56.768Z,66.30
2022-12-08T11:41:31.064Z,65.85
2022-12-08T11:44:14.561Z,66.05
2022-12-08T11:46:52.005Z,65.84
2022-12-08T11:49:26.861Z,66.10
2022-12-08T11:52:05.267Z,66.12
2022-12-08T11:54:41.077Z,65.90
2022-12-08T11:57:16.457Z,65.77
2022-12-08T11:59:50.921Z,65.90
2022-12-08T12:02:25.223Z,66.05
2022-12-08T12:05:02.074Z,65.86
2022-12-08T12:08:04.663Z,65.46
2022-12-08T12:11:00.983Z,65.53
2022-12-08T12:13:56.361Z,65.78
2022-12-08T12:16:56.738Z,65.85
2022-12-08T12:19:31.067Z,65.65
2022-12-08T12:22:11.662Z,65.66
2022-12-08T12:24:48.807Z,65.76
2022-12-08T12:27:29.232Z,65.56
2022-12-08T12:30:03.923Z,65.66
2022-12-08T12:32:48.182Z,65.80
2022-12-08T12:35:28.517Z,65.60
2022-12-08T12:38:03.092Z,65.28
2022-12-08T12:40:44.477Z,65.43
2022-12-08T12:43:28.686Z,65.92
2022-12-08T12:46:30.784Z,65.90
2022-12-08T12:49:53.301Z,66.07
2022-12-08T12:52:45.950Z,66.04
2022-12-08T12:55:29.151Z,66.13
2022-12-08T12:58:04.831Z,66.02
2022-12-08T13:00:36.353Z,66.24
2022-12-08T13:03:18.077Z,66.47
2022-12-08T13:05:54.252Z,66.47
2022-12-08T13:08:27.916Z,66.46
2022-12-08T13:11:03.790Z,66.60
2022-12-08T13:13:35.692Z,66.61
2022-12-08T13:16:19.764Z,66.62
2022-12-08T13:18:53.283Z,66.64
2022-12-08T13:21:32.296Z,66.82
2022-12-08T13:24:28.094Z,67.03
2022-12-08T13:27:34.083Z,67.08
2022-12-08T13:30:40.184Z,67.19
2022-12-08T13:33:18.397Z,67.20
2022-12-08T13:36:12.659Z,67.29
2022-12-08T13:38:47.116Z,67.40
2022-12-08T13:41:32.037Z,67.41
2022-12-08T13:45:03.667Z,67.52
2022-12-08T13:59:09.766Z,68.03
2022-12-08T14:01:46.762Z,68.20
2022-12-08T14:07:12.311Z,68.15
2022-12-08T14:09:44.611Z,68.35
2022-12-08T14:12:22.751Z,68.35
2022-12-08T14:15:04.209Z,68.27
2022-12-08T14:17:36.611Z,68.48
2022-12-08T14:20:24.726Z,68.42
2022-12-08T14:22:57.165Z,68.42
2022-12-08T14:25:29.777Z,68.38
2022-12-08T14:28:04.953Z,68.41
2022-12-08T14:30:39.531Z,68.54
2022-12-08T14:33:17.437Z,68.55
2022-12-08T14:35:54.921Z,68.55
2022-12-08T14:38:27.870Z,68.62
2022-12-08T14:41:07.883Z,68.71
2022-12-08T14:43:40.881Z,68.70
2022-12-08T14:46:24.037Z,68.77
2022-12-08T14:48:57.016Z,68.86
2022-12-08T14:51:32.489Z,69.00
2022-12-08T14:54:08.425Z,68.94
2022-12-08T14:56:42.033Z,69.02
2022-12-08T14:59:18.756Z,68.92
2022-12-08T15:01:52.627Z,69.20
2022-12-08T15:04:28.065Z,69.28
2022-12-08T15:07:05.877Z,69.20
2022-12-08T15:09:42.036Z,69.29
2022-12-08T15:12:27.296Z,69.21
2022-12-08T15:15:02.738Z,69.19
2022-12-08T15:17:42.713Z,69.27
2022-12-08T15:23:23.098Z,69.31
2022-12-08T15:25:55.125Z,69.47
2022-12-08T15:28:30.366Z,69.47
2022-12-08T15:31:02.410Z,69.49
2022-12-08T15:33:33.939Z,69.56
2022-12-08T15:36:12.058Z,69.67
2022-12-08T15:38:43.985Z,69.71
2022-12-08T15:41:15.567Z,69.91
2022-12-08T15:43:47.303Z,69.76
2022-12-08T15:46:19.239Z,70.06
2022-12-08T15:48:56.475Z,70.25
2022-12-08T15:51:31.040Z,70.14
2022-12-08T15:54:02.543Z,70.17
2022-12-08T15:56:34.448Z,70.15
2022-12-08T15:59:11.286Z,70.22
2022-12-08T16:01:43.258Z,70.22
2022-12-08T16:07:21.967Z,70.28
2022-12-08T16:09:55.306Z,70.29
2022-12-08T16:13:47.901Z,70.34
2022-12-08T16:15:51.616Z,70.43
2022-12-08T16:18:34.213Z,70.48
2022-12-08T16:21:22.865Z,70.45
2022-12-08T16:24:05.981Z,70.63
2022-12-08T16:27:58.085Z,70.85
2022-12-08T16:29:34.262Z,70.87
2022-12-08T16:32:05.996Z,70.91
2022-12-08T16:34:37.660Z,70.99
2022-12-08T16:37:09.999Z,71.06
2022-12-08T16:39:45.765Z,71.13
2022-12-08T16:42:37.513Z,70.93
2022-12-08T16:45:12.245Z,70.96
2022-12-08T16:47:46.069Z,70.87
2022-12-08T16:50:20.518Z,71.03
2022-12-08T16:52:57.550Z,70.92
2022-12-08T16:55:29.452Z,71.06
2022-12-08T16:58:01.132Z,71.06
2022-12-08T17:00:36.724Z,71.05
2022-12-08T17:03:09.501Z,71.26
2022-12-08T17:05:50.616Z,71.22
2022-12-08T17:08:24.116Z,71.25
2022-12-08T17:11:08.238Z,71.26
2022-12-08T17:13:42.300Z,71.28
2022-12-08T17:16:19.262Z,71.27
2022-12-08T17:18:51.277Z,71.44
2022-12-08T17:21:23.268Z,71.52
2022-12-08T17:23:55.851Z,71.64
2022-12-08T17:26:27.398Z,71.65
2022-12-08T17:29:00.904Z,71.51
2022-12-08T17:31:33.840Z,71.71
2022-12-08T17:34:10.242Z,71.73
2022-12-08T17:36:42.171Z,71.82
2022-12-08T17:39:18.437Z,71.93
2022-12-08T17:41:50.675Z,71.82
2022-12-08T17:44:22.758Z,71.82
2022-12-08T17:46:54.245Z,71.86
2022-12-08T17:49:29.561Z,71.82
2022-12-08T17:52:03.224Z,72.01
2022-12-08T17:54:33.567Z,71.90
2022-12-08T17:57:05.507Z,71.82
2022-12-08T17:59:37.077Z,71.79
2022-12-08T18:02:11.316Z,72.00
2022-12-08T18:04:42.887Z,72.04
2022-12-08T18:07:14.416Z,72.11
2022-12-08T18:09:45.930Z,72.08
2022-12-08T18:12:23.241Z,72.29
2022-12-08T18:14:55.279Z,72.29
2022-12-08T18:17:26.816Z,72.25
2022-12-08T18:19:58.480Z,72.21
2022-12-08T18:22:30.133Z,72.22
2022-12-08T18:25:01.730Z,72.19
2022-12-08T18:27:37.303Z,72.13
2022-12-08T18:30:17.951Z,72.14
2022-12-08T18:32:54.197Z,72.13
2022-12-08T18:35:29.006Z,72.18
2022-12-08T18:38:01.109Z,72.48
2022-12-08T18:40:32.729Z,72.49
2022-12-08T18:43:04.554Z,72.61
2022-12-08T18:45:36.997Z,72.68
2022-12-08T18:48:08.788Z,72.63
2022-12-08T18:50:44.778Z,72.61
2022-12-08T18:53:16.271Z,72.50
2022-12-08T18:55:50.906Z,72.40
2022-12-08T18:58:22.405Z,72.31
2022-12-08T19:00:54.003Z,72.24
2022-12-08T19:03:25.621Z,72.29
2022-12-08T19:06:06.226Z,72.27
2022-12-08T19:08:37.945Z,72.12
2022-12-08T19:11:19.977Z,72.17
2022-12-08T19:13:51.584Z,72.13
2022-12-08T19:16:23.672Z,72.26
2022-12-08T19:18:55.215Z,72.31
2022-12-08T19:21:26.781Z,72.27
2022-12-08T19:23:59.885Z,72.24
2022-12-08T19:26:31.758Z,72.27
2022-12-08T19:29:03.733Z,72.28
2022-12-08T19:31:35.315Z,72.27
2022-12-08T19:34:10.807Z,72.25
2022-12-08T19:36:43.252Z,72.53
2022-12-08T19:39:35.586Z,72.55
2022-12-08T19:42:31.411Z,72.37
2022-12-08T19:45:06.312Z,72.79
2022-12-08T19:47:37.957Z,72.83
2022-12-08T19:50:30.010Z,72.76
2022-12-08T19:53:02.186Z,72.64
2022-12-08T19:55:34.340Z,72.62
2022-12-08T19:58:07.003Z,72.53
2022-12-08T20:00:41.450Z,72.35
2022-12-08T20:03:15.091Z,72.36
2022-12-08T20:05:48.626Z,72.35
2022-12-08T20:08:20.257Z,72.35
2022-12-08T20:10:56.066Z,72.36
2022-12-08T20:13:45.600Z,72.44
2022-12-08T20:16:18.041Z,72.42
2022-12-08T20:18:49.644Z,72.38
2022-12-08T20:21:22.009Z,72.46
2022-12-08T20:23:53.736Z,72.36
2022-12-08T20:26:26.589Z,72.41
2022-12-08T20:28:58.198Z,72.48
2022-12-08T20:31:32.071Z,72.53
2022-12-08T20:34:03.853Z,72.64
2022-12-08T20:36:35.439Z,72.62
2022-12-08T20:39:11.639Z,72.74
2022-12-08T20:41:43.645Z,72.86
2022-12-08T20:44:15.227Z,72.86
2022-12-08T20:46:49.627Z,72.98
2022-12-08T20:49:21.511Z,72.94
2022-12-08T20:51:53.248Z,72.92
2022-12-08T20:54:24.708Z,72.70
2022-12-08T20:56:56.380Z,72.50
2022-12-08T20:59:28.367Z,72.59
2022-12-08T21:02:00.447Z,72.50
2022-12-08T21:04:32.581Z,72.43
2022-12-08T21:07:04.567Z,72.44
2022-12-08T21:09:36.627Z,72.35
2022-12-08T21:12:09.343Z,72.39
2022-12-08T21:14:42.445Z,72.50
2022-12-08T21:17:16.455Z,72.59
2022-12-08T21:19:48.224Z,72.57
2022-12-08T21:22:21.092Z,72.51
2022-12-08T21:24:53.263Z,72.62
2022-12-08T21:27:24.895Z,72.57
2022-12-08T21:29:56.530Z,72.83
2022-12-08T21:32:30.646Z,72.71
2022-12-08T21:35:03.003Z,72.90
2022-12-08T21:37:35.469Z,72.80
2022-12-08T21:40:09.715Z,72.76
2022-12-08T21:42:44.588Z,72.99
2022-12-08T21:45:19.087Z,72.93
2022-12-08T21:47:51.627Z,72.97
2022-12-08T21:50:23.423Z,72.95
2022-12-08T21:52:55.064Z,72.94
2022-12-08T21:55:26.926Z,72.95
2022-12-08T21:58:00.978Z,72.69
2022-12-08T22:00:33.547Z,72.57
2022-12-08T22:03:06.113Z,72.66
2022-12-08T22:05:37.882Z,72.66
2022-12-08T22:08:10.174Z,72.59
2022-12-08T22:10:41.956Z,72.70
2022-12-08T22:13:13.637Z,72.79
2022-12-08T22:15:45.290Z,72.73
2022-12-08T22:18:16.949Z,72.67
2022-12-08T22:20:48.753Z,72.64
2022-12-08T22:23:21.321Z,72.59
2022-12-08T22:25:59.339Z,72.74
2022-12-08T22:28:35.835Z,72.81
2022-12-08T22:31:13.088Z,72.83
2022-12-08T22:33:45.573Z,72.82
2022-12-08T22:36:19.846Z,73.08
2022-12-08T22:38:52.527Z,73.00
2022-12-08T22:41:24.530Z,73.15
2022-12-08T22:43:56.220Z,72.71
2022-12-08T22:46:28.938Z,72.61
2022-12-08T22:49:00.841Z,72.73
2022-12-08T22:51:32.694Z,72.51
2022-12-08T22:54:05.554Z,72.64
2022-12-08T22:56:37.274Z,72.67
2022-12-08T22:59:09.830Z,72.62
2022-12-08T23:01:41.320Z,72.71
2022-12-08T23:04:17.708Z,72.60
2022-12-08T23:06:50.291Z,72.65
2022-12-08T23:09:22.309Z,72.53
2022-12-08T23:11:54.204Z,72.56
2022-12-08T23:14:25.801Z,72.39
2022-12-08T23:16:57.464Z,72.52
2022-12-08T23:19:29.153Z,72.45
2022-12-08T23:22:00.676Z,72.53
2022-12-08T23:24:33.413Z,72.56
2022-12-08T23:27:06.061Z,72.62
2022-12-08T23:29:37.960Z,72.67
2022-12-08T23:32:09.659Z,72.59
2022-12-08T23:34:42.238Z,72.59
2022-12-08T23:37:13.925Z,72.68
2022-12-08T23:39:45.643Z,72.68
2022-12-08T23:42:17.217Z,72.54
2022-12-08T23:44:48.951Z,72.42
2022-12-08T23:47:20.841Z,72.39
2022-12-08T23:49:52.639Z,72.42
2022-12-08T23:52:24.379Z,72.51
2022-12-08T23:54:57.116Z,72.44
2022-12-08T23:57:28.729Z,72.37
